Time;durP1;ratioP1;P1;durP2;ratioP2;P2;SDS_P1;SDS_P2;PMS_P1;PMS_P2;Temp;Humidity;BMP_temperature;BMP_pressure;BME280_temperature;BME280_humidity;BME280_pressure;Samples;Min_cycle;Max_cycle;Signal;HPM_P1;HPM_P2
2024/01/29 00:00:08;;;;;;;4.40;3.78;;;5.50;71.20;;;;;;5083114;28;20047;-58
2024/01/29 00:02:37;;;;;;;5.05;3.47;;;5.50;71.30;;;;;;5122770;22;20143;-50
2024/01/29 00:05:11;;;;;;;3.65;3.10;;;5.50;71.30;;;;;;5059858;28;20552;-49
2024/01/29 00:07:40;;;;;;;3.60;3.10;;;5.50;71.40;;;;;;5068824;28;20044;-49
2024/01/29 00:10:07;;;;;;;6.70;3.92;;;5.50;71.40;;;;;;5068841;28;20048;-48
2024/01/29 00:12:36;;;;;;;3.97;3.58;;;5.50;71.40;;;;;;5065097;28;20039;-48
2024/01/29 00:15:06;;;;;;;5.22;3.67;;;5.50;71.40;;;;;;5066732;28;20047;-49
2024/01/29 00:17:37;;;;;;;4.53;3.08;;;5.50;71.30;;;;;;5068418;28;20029;-52
2024/01/29 00:20:11;;;;;;;5.68;3.90;;;5.50;71.30;;;;;;5068624;28;20059;-48
2024/01/29 00:22:38;;;;;;;;;;;5.50;71.20;;;;;;5067492;28;20049;-49
2024/01/29 00:25:07;;;;;;;4.10;3.00;;;5.50;71.40;;;;;;5062731;28;19956;-50
2024/01/29 00:27:34;;;;;;;3.80;3.50;;;5.50;70.90;;;;;;5063033;28;20065;-49
2024/01/29 00:30:04;;;;;;;4.13;3.47;;;5.50;71.00;;;;;;5062772;28;20114;-50
2024/01/29 00:32:33;;;;;;;6.65;3.40;;;5.50;71.10;;;;;;5062668;28;20114;-47
2024/01/29 00:35:00;;;;;;;4.25;3.83;;;5.40;71.20;;;;;;5068812;28;20445;-49
2024/01/29 00:37:29;;;;;;;5.63;4.05;;;5.40;71.50;;;;;;5064162;28;20044;-49
2024/01/29 00:39:56;;;;;;;4.80;3.70;;;5.40;71.70;;;;;;5067855;28;20828;-52
2024/01/29 00:42:23;;;;;;;4.93;3.75;;;5.50;71.80;;;;;;5068698;28;20089;-50
2024/01/29 00:44:58;;;;;;;4.63;4.10;;;5.50;71.90;;;;;;5072060;28;20044;-50
2024/01/29 00:47:27;;;;;;;4.90;3.65;;;5.50;71.90;;;;;;5072211;28;20039;-49
2024/01/29 00:49:56;;;;;;;4.57;3.47;;;5.50;71.80;;;;;;5071218;28;20048;-49
2024/01/29 00:52:28;;;;;;;4.00;3.33;;;5.50;71.80;;;;;;5059714;28;20036;-52
2024/01/29 00:54:57;;;;;;;4.95;3.50;;;5.50;72.00;;;;;;5072035;28;20032;-51
2024/01/29 00:57:24;;;;;;;7.50;3.83;;;5.50;72.00;;;;;;5071423;28;20041;-49
2024/01/29 00:59:56;;;;;;;6.68;4.18;;;5.50;72.10;;;;;;5070496;28;20040;-50
2024/01/29 01:02:26;;;;;;;4.65;3.63;;;5.50;72.20;;;;;;5061870;28;20076;-49
2024/01/29 01:04:55;;;;;;;4.50;3.55;;;5.60;72.20;;;;;;5067708;28;20051;-50
2024/01/29 01:07:25;;;;;;;5.97;3.55;;;5.60;72.10;;;;;;5070825;28;20064;-51
2024/01/29 01:09:52;;;;;;;4.88;3.53;;;5.70;72.20;;;;;;5071195;28;20127;-49
2024/01/29 01:12:21;;;;;;;4.57;3.45;;;5.70;72.10;;;;;;5059018;28;20044;-48
2024/01/29 01:14:47;;;;;;;4.38;3.67;;;5.70;72.00;;;;;;5071598;28;20037;-48
2024/01/29 01:17:22;;;;;;;4.72;3.67;;;5.70;71.90;;;;;;5070415;28;20506;-48
2024/01/29 01:19:50;;;;;;;4.78;3.78;;;5.70;71.90;;;;;;5070843;28;20066;-49
2024/01/29 01:22:17;;;;;;;5.32;3.85;;;5.70;71.90;;;;;;5069979;28;20040;-49
2024/01/29 01:24:44;;;;;;;4.88;4.38;;;5.70;71.90;;;;;;5069544;28;20040;-51
2024/01/29 01:27:16;;;;;;;5.60;3.80;;;5.70;72.00;;;;;;5068434;28;20518;-48
2024/01/29 01:29:46;;;;;;;3.72;3.10;;;5.70;72.00;;;;;;5070135;28;20079;-49
2024/01/29 01:32:17;;;;;;;3.85;3.55;;;5.80;71.90;;;;;;5062576;28;20037;-48
2024/01/29 01:34:45;;;;;;;5.70;3.78;;;5.80;71.90;;;;;;5065801;28;20127;-53
2024/01/29 01:37:11;;;;;;;5.13;3.83;;;5.80;71.80;;;;;;5070514;28;20047;-49
2024/01/29 01:39:41;;;;;;;4.57;4.00;;;5.80;71.80;;;;;;5070509;28;20573;-52
2024/01/29 01:42:08;;;;;;;5.22;3.70;;;5.80;71.80;;;;;;5060427;28;20814;-50
2024/01/29 01:44:38;;;;;;;5.28;3.17;;;5.80;71.80;;;;;;5070851;28;20050;-49
2024/01/29 01:47:04;;;;;;;5.25;3.72;;;5.80;71.80;;;;;;5070838;28;20123;-49
2024/01/29 01:49:34;;;;;;;7.25;4.30;;;5.80;71.90;;;;;;5066694;28;20060;-48
2024/01/29 01:52:06;;;;;;;6.35;3.92;;;5.80;71.90;;;;;;5067713;28;20045;-49
2024/01/29 01:54:37;;;;;;;3.60;3.30;;;5.80;71.90;;;;;;5070788;28;20044;-49
2024/01/29 01:57:04;;;;;;;4.55;3.45;;;5.80;72.00;;;;;;5066833;28;20627;-48
2024/01/29 01:59:34;;;;;;;5.38;3.80;;;5.80;71.90;;;;;;5064342;28;20048;-49
2024/01/29 02:02:07;;;;;;;6.60;3.78;;;5.80;72.00;;;;;;5062066;28;20529;-50
2024/01/29 02:04:37;;;;;;;5.43;3.92;;;5.80;72.00;;;;;;5070486;28;20048;-49
2024/01/29 02:07:04;;;;;;;4.90;3.63;;;5.90;72.00;;;;;;5070827;28;20056;-49
2024/01/29 02:09:34;;;;;;;5.13;3.47;;;5.90;71.90;;;;;;5068544;28;20057;-50
2024/01/29 02:12:01;;;;;;;5.30;3.50;;;5.90;71.90;;;;;;5062400;28;20064;-50
2024/01/29 02:14:33;;;;;;;5.93;3.72;;;5.90;71.80;;;;;;5069947;28;20087;-49
2024/01/29 02:17:05;;;;;;;4.82;3.25;;;5.90;71.80;;;;;;5069743;28;20040;-49
2024/01/29 02:19:34;;;;;;;4.22;3.83;;;6.00;71.80;;;;;;5063722;28;20872;-50
2024/01/29 02:22:05;;;;;;;3.85;3.50;;;6.00;71.70;;;;;;5066604;28;20032;-50
2024/01/29 02:24:35;;;;;;;5.75;4.50;;;6.00;71.70;;;;;;5070076;28;20390;-50
2024/01/29 02:27:05;;;;;;;5.03;3.88;;;6.00;71.70;;;;;;5065074;28;20036;-50
2024/01/29 02:29:36;;;;;;;5.38;3.72;;;6.00;71.70;;;;;;5065321;28;20043;-50
2024/01/29 02:32:08;;;;;;;6.40;3.58;;;6.00;71.70;;;;;;5067957;28;20033;-49
2024/01/29 02:34:37;;;;;;;4.80;3.67;;;6.00;71.70;;;;;;5063771;28;20086;-49
2024/01/29 02:37:10;;;;;;;4.65;4.07;;;6.00;71.60;;;;;;5068521;28;20033;-49
2024/01/29 02:39:39;;;;;;;4.45;4.05;;;6.00;71.60;;;;;;5069434;28;20060;-48
2024/01/29 02:42:12;;;;;;;4.38;3.97;;;6.00;71.60;;;;;;5062793;28;20063;-51
2024/01/29 02:44:39;;;;;;;4.38;3.70;;;6.00;71.60;;;;;;5063051;28;20063;-47
2024/01/29 02:47:08;;;;;;;6.47;4.25;;;6.00;71.60;;;;;;5069304;28;20037;-50
2024/01/29 02:49:37;;;;;;;5.07;4.18;;;5.90;71.50;;;;;;5068289;28;20032;-48
2024/01/29 02:52:06;;;;;;;5.17;3.70;;;5.90;71.50;;;;;;5070148;28;20059;-48
2024/01/29 02:54:33;;;;;;;5.57;3.95;;;5.90;71.60;;;;;;5069706;28;20413;-49
2024/01/29 02:57:03;;;;;;;4.60;4.00;;;5.90;71.60;;;;;;5066555;28;20048;-50
2024/01/29 02:59:33;;;;;;;5.13;4.20;;;5.90;71.60;;;;;;5066970;28;20464;-51
2024/01/29 03:02:03;;;;;;;5.38;3.80;;;5.90;71.60;;;;;;5064565;28;20131;-48
2024/01/29 03:04:36;;;;;;;4.43;4.03;;;5.90;71.60;;;;;;5069429;28;20083;-50
2024/01/29 03:07:05;;;;;;;4.28;3.58;;;5.90;71.70;;;;;;5069856;28;20043;-48
2024/01/29 03:09:37;;;;;;;6.32;4.30;;;5.80;71.60;;;;;;5068705;28;20048;-49
2024/01/29 03:12:04;;;;;;;4.75;3.60;;;5.80;71.70;;;;;;5058408;28;20400;-51
2024/01/29 03:14:33;;;;;;;4.63;3.65;;;5.80;71.70;;;;;;5069077;28;20115;-50
2024/01/29 03:16:59;;;;;;;4.78;4.10;;;5.80;71.70;;;;;;5069728;28;20440;-49
2024/01/29 03:19:35;;;;;;;4.20;3.80;;;5.80;71.70;;;;;;5064776;28;20070;-49
2024/01/29 03:22:04;;;;;;;5.30;3.92;;;5.80;71.80;;;;;;5064946;28;20037;-51
2024/01/29 03:24:31;;;;;;;5.43;3.97;;;5.70;71.80;;;;;;5069267;28;20079;-50
2024/01/29 03:27:07;;;;;;;6.07;4.05;;;5.70;71.80;;;;;;5068378;28;20041;-49
2024/01/29 03:29:33;;;;;;;4.35;3.95;;;5.70;71.90;;;;;;5067970;28;20044;-49
2024/01/29 03:32:00;;;;;;;4.22;3.53;;;5.70;71.90;;;;;;5067717;28;20052;-50
2024/01/29 03:34:29;;;;;;;6.95;4.18;;;5.70;71.90;;;;;;5068922;28;20090;-50
2024/01/29 03:36:58;;;;;;;5.15;4.50;;;5.70;72.00;;;;;;5068815;28;20537;-47
2024/01/29 03:39:29;;;;;;;6.70;3.77;;;5.70;72.00;;;;;;5065344;28;20050;-50
2024/01/29 03:41:59;;;;;;;6.03;4.10;;;5.70;72.00;;;;;;5060781;28;20529;-50
2024/01/29 03:44:27;;;;;;;5.18;3.70;;;5.70;71.90;;;;;;5067843;28;20494;-49
2024/01/29 03:46:56;;;;;;;6.20;4.40;;;5.70;71.90;;;;;;5068718;28;20045;-51
2024/01/29 03:49:27;;;;;;;4.78;3.42;;;5.70;71.90;;;;;;5065598;28;20044;-51
2024/01/29 03:51:54;;;;;;;4.07;3.67;;;5.70;72.00;;;;;;5067752;28;20049;-48
2024/01/29 03:54:21;;;;;;;7.40;4.43;;;5.70;72.00;;;;;;5067519;28;20052;-50
2024/01/29 03:56:48;;;;;;;5.68;3.65;;;5.70;72.00;;;;;;5071438;28;20110;-49
2024/01/29 03:59:17;;;;;;;5.40;4.22;;;5.70;72.10;;;;;;5072066;28;20138;-51
2024/01/29 04:01:49;;;;;;;7.00;4.25;;;5.70;72.20;;;;;;5064561;28;20556;-51
2024/01/29 04:04:16;;;;;;;4.60;3.92;;;5.70;72.20;;;;;;5072261;28;20045;-49
2024/01/29 04:06:45;;;;;;;4.72;4.30;;;5.70;72.10;;;;;;5072095;28;20490;-50
2024/01/29 04:09:20;;;;;;;4.57;3.38;;;5.60;72.00;;;;;;5072253;28;20067;-48
2024/01/29 04:11:50;;;;;;;5.22;4.07;;;5.60;71.90;;;;;;5068164;28;20040;-49
2024/01/29 04:14:17;;;;;;;5.20;3.85;;;5.60;72.00;;;;;;5072700;28;20040;-48
2024/01/29 04:16:51;;;;;;;4.32;3.55;;;5.60;72.10;;;;;;5064197;28;20090;-49
2024/01/29 04:19:17;;;;;;;5.85;4.40;;;5.60;72.20;;;;;;5072281;28;20387;-49
2024/01/29 04:21:47;;;;;;;6.10;4.15;;;5.60;72.20;;;;;;5071251;28;20064;-49
2024/01/29 04:24:16;;;;;;;4.65;4.20;;;5.60;72.30;;;;;;5072591;28;20051;-48
2024/01/29 04:26:45;;;;;;;4.78;4.10;;;5.60;72.40;;;;;;5067623;28;20120;-53
2024/01/29 04:29:14;;;;;;;4.03;3.50;;;5.60;72.40;;;;;;5072238;28;20048;-52
2024/01/29 04:31:43;;;;;;;6.47;4.30;;;5.60;72.40;;;;;;5068479;28;20080;-50
2024/01/29 04:34:10;;;;;;;5.00;4.35;;;5.60;72.40;;;;;;5071890;28;20036;-49
2024/01/29 04:36:42;;;;;;;5.68;3.47;;;5.60;72.40;;;;;;5072143;28;20510;-49
2024/01/29 04:39:11;;;;;;;5.63;4.65;;;5.60;72.50;;;;;;5071714;28;20442;-51
2024/01/29 04:41:38;;;;;;;6.05;3.90;;;5.60;72.50;;;;;;5070787;28;20041;-49
2024/01/29 04:44:15;;;;;;;4.70;4.28;;;5.60;72.50;;;;;;5072174;28;20463;-50
2024/01/29 04:46:44;;;;;;;5.43;3.72;;;5.60;72.60;;;;;;5071245;28;20480;-48
2024/01/29 04:49:14;;;;;;;7.53;4.40;;;5.60;72.50;;;;;;5070419;28;20040;-50
2024/01/29 04:51:43;;;;;;;5.60;4.22;;;5.60;72.60;;;;;;5071238;28;20052;-49
2024/01/29 04:54:15;;;;;;;5.85;4.00;;;5.60;72.60;;;;;;5071444;28;20032;-49
2024/01/29 04:56:44;;;;;;;7.22;4.55;;;5.70;72.60;;;;;;5070477;28;20046;-49
2024/01/29 04:59:17;;;;;;;6.88;4.82;;;5.60;72.50;;;;;;5069696;28;20060;-50
2024/01/29 05:01:43;;;;;;;4.63;3.80;;;5.70;72.60;;;;;;5067983;28;20661;-50
2024/01/29 05:04:11;;;;;;;5.00;4.00;;;5.70;72.60;;;;;;5071889;28;20482;-49
2024/01/29 05:06:37;;;;;;;7.80;4.70;;;5.60;72.50;;;;;;5069277;28;20265;-53
2024/01/29 05:09:09;;;;;;;6.28;4.35;;;5.70;72.50;;;;;;5070925;28;20041;-51
2024/01/29 05:11:39;;;;;;;5.07;3.83;;;5.70;72.50;;;;;;5064764;28;20048;-49
2024/01/29 05:14:06;;;;;;;5.90;4.10;;;5.70;72.60;;;;;;5071616;28;20053;-50
2024/01/29 05:16:35;;;;;;;6.50;4.22;;;5.70;72.50;;;;;;5071264;28;20045;-49
2024/01/29 05:19:04;;;;;;;5.25;4.10;;;5.70;72.60;;;;;;5071264;28;20044;-48
2024/01/29 05:21:34;;;;;;;6.97;3.83;;;5.70;72.60;;;;;;5069805;28;20040;-50
2024/01/29 05:24:03;;;;;;;5.57;4.07;;;5.70;72.70;;;;;;5071378;28;20056;-49
2024/01/29 05:26:36;;;;;;;8.20;4.25;;;5.70;73.30;;;;;;5066215;28;20040;-50
2024/01/29 05:29:05;;;;;;;4.50;3.70;;;5.70;72.50;;;;;;5071641;28;20450;-49
2024/01/29 05:31:34;;;;;;;5.00;4.10;;;5.70;72.50;;;;;;5068511;28;20044;-51
2024/01/29 05:34:02;;;;;;;5.60;4.43;;;5.70;72.40;;;;;;5069248;28;20581;-49
2024/01/29 05:36:32;;;;;;;4.97;3.65;;;5.70;72.40;;;;;;5070433;28;20152;-50
2024/01/29 05:38:58;;;;;;;6.25;4.10;;;5.70;72.40;;;;;;5071270;28;20391;-48
2024/01/29 05:41:33;;;;;;;5.38;4.10;;;5.70;72.30;;;;;;5069409;28;20102;-49
2024/01/29 05:44:03;;;;;;;5.35;4.25;;;5.70;72.30;;;;;;5063752;28;20472;-50
2024/01/29 05:46:32;;;;;;;4.85;4.00;;;5.60;72.20;;;;;;5070468;28;20643;-48
2024/01/29 05:49:01;;;;;;;5.60;3.72;;;5.60;72.20;;;;;;5071558;28;20063;-49
2024/01/29 05:51:39;;;;;;;5.13;3.67;;;5.60;72.10;;;;;;5069899;28;20121;-50
2024/01/29 05:54:05;;;;;;;5.03;4.25;;;5.60;72.20;;;;;;5070751;28;20036;-49
2024/01/29 05:56:40;;;;;;;5.82;3.90;;;5.50;72.00;;;;;;5070227;28;20040;-49
2024/01/29 05:59:06;;;;;;;5.10;4.63;;;5.50;71.90;;;;;;5068253;28;20036;-48
2024/01/29 06:01:33;;;;;;;5.88;4.28;;;5.50;71.90;;;;;;5065251;28;20036;-50
2024/01/29 06:04:00;;;;;;;5.38;4.30;;;5.50;71.90;;;;;;5084421;22;20409;-53
2024/01/29 06:06:29;;;;;;;5.07;4.60;;;5.40;71.80;;;;;;5055644;28;20036;-53
2024/01/29 06:08:55;;;;;;;5.95;5.18;;;5.40;71.70;;;;;;5069837;28;20039;-52
2024/01/29 06:11:28;;;;;;;5.05;4.55;;;5.40;71.70;;;;;;5065449;28;20059;-52
2024/01/29 06:13:58;;;;;;;;;;;5.30;71.80;;;;;;5070860;28;20044;-49
2024/01/29 06:16:25;;;;;;;5.05;4.55;;;5.30;72.10;;;;;;5063149;28;19921;-49
2024/01/29 06:18:57;;;;;;;6.47;5.35;;;5.30;71.60;;;;;;5067725;28;20043;-50
2024/01/29 06:21:34;;;;;;;6.15;5.55;;;5.30;71.70;;;;;;5068425;28;20044;-52
2024/01/29 06:24:03;;;;;;;6.65;5.78;;;5.20;71.80;;;;;;5066310;28;20048;-51
2024/01/29 06:26:47;;;;;;;7.85;5.45;;;5.20;71.80;;;;;;5064864;28;20124;-52
2024/01/29 06:29:15;;;;;;;6.53;5.57;;;5.10;71.80;;;;;;5065399;28;20048;-53
2024/01/29 06:31:54;;;;;;;6.32;5.68;;;5.10;71.80;;;;;;5061023;28;20055;-56
2024/01/29 06:34:25;;;;;;;7.30;5.95;;;5.10;71.90;;;;;;5062222;28;20048;-55
2024/01/29 06:36:53;;;;;;;9.63;6.10;;;5.10;71.90;;;;;;5068245;28;20109;-55
2024/01/29 06:39:20;;;;;;;6.07;5.47;;;5.00;71.90;;;;;;5061568;28;20113;-55
2024/01/29 06:41:47;;;;;;;8.18;6.15;;;5.10;72.00;;;;;;5064714;28;20082;-55
2024/01/29 06:44:16;;;;;;;6.40;5.38;;;5.00;72.00;;;;;;5068064;28;20051;-55
2024/01/29 06:46:43;;;;;;;6.45;5.85;;;5.00;72.00;;;;;;5067209;28;20048;-56
2024/01/29 06:49:25;;;;;;;6.78;5.20;;;5.00;71.90;;;;;;5066306;28;20047;-55
2024/01/29 06:51:51;;;;;;;5.53;5.03;;;5.00;72.30;;;;;;5064140;28;20048;-56
2024/01/29 06:54:18;;;;;;;6.25;4.65;;;4.90;72.20;;;;;;5068418;28;20040;-55
2024/01/29 06:56:52;;;;;;;5.95;4.97;;;4.90;72.10;;;;;;5068264;28;20510;-55
2024/01/29 06:59:26;;;;;;;6.13;4.95;;;4.90;72.10;;;;;;5062775;28;20473;-56
2024/01/29 07:01:59;;;;;;;5.30;4.80;;;4.90;72.30;;;;;;5060716;28;20036;-53
2024/01/29 07:04:29;;;;;;;8.10;4.63;;;4.90;72.30;;;;;;5039110;28;20049;-56
2024/01/29 07:06:55;;;;;;;7.32;5.35;;;4.90;72.30;;;;;;5050480;28;20092;-55
2024/01/29 07:09:32;;;;;;;5.53;5.03;;;4.90;72.20;;;;;;5053182;28;20143;-56
2024/01/29 07:12:14;;;;;;;;;;;;;;;;;;;;;
2024/01/29 07:14:44;;;;;;;6.25;5.05;;;4.90;72.20;;;;;;5064886;28;20048;-56
2024/01/29 07:17:14;;;;;;;6.57;4.78;;;4.90;72.10;;;;;;5068039;28;20460;-56
2024/01/29 07:19:41;;;;;;;5.70;4.88;;;4.90;72.10;;;;;;5063034;28;20044;-56
2024/01/29 07:22:14;;;;;;;6.07;5.47;;;4.90;72.20;;;;;;5063545;28;20068;-56
2024/01/29 07:24:41;;;;;;;5.30;4.80;;;4.80;72.30;;;;;;5058923;28;20395;-55
2024/01/29 07:27:19;;;;;;;5.93;4.35;;;4.90;72.40;;;;;;5064102;28;20056;-56
2024/01/29 07:29:51;;;;;;;8.23;5.05;;;4.80;72.40;;;;;;5067655;28;20094;-56
2024/01/29 07:32:31;;;;;;;6.68;4.88;;;4.80;72.40;;;;;;5071015;28;20067;-56
2024/01/29 07:35:00;;;;;;;5.85;4.38;;;4.80;72.40;;;;;;5073369;28;20040;-56
2024/01/29 07:37:32;;;;;;;5.70;5.05;;;4.90;72.50;;;;;;5071406;28;20037;-56
2024/01/29 07:40:03;;;;;;;4.97;4.05;;;4.90;72.60;;;;;;5072873;28;20036;-56
2024/01/29 07:42:31;;;;;;;;;;;4.80;72.60;;;;;;5071920;28;20513;-55
2024/01/29 07:45:05;;;;;;;8.60;4.15;;;4.90;73.00;;;;;;5073535;28;19921;-55
2024/01/29 07:47:32;;;;;;;4.90;3.97;;;4.90;72.60;;;;;;5070146;28;20055;-56
2024/01/29 07:50:00;;;;;;;4.63;4.15;;;4.90;73.30;;;;;;5056846;28;20090;-55
2024/01/29 07:52:28;;;;;;;5.45;4.40;;;4.90;72.80;;;;;;5074464;28;20044;-56
2024/01/29 07:54:59;;;;;;;4.90;4.47;;;5.00;73.00;;;;;;5059560;28;20491;-56
2024/01/29 07:57:28;;;;;;;5.88;5.28;;;5.00;73.20;;;;;;5071839;28;20137;-56
2024/01/29 07:59:57;;;;;;;5.03;4.53;;;5.00;73.40;;;;;;5076177;28;20049;-56
2024/01/29 08:02:33;;;;;;;5.38;4.68;;;5.00;73.40;;;;;;5070862;28;20032;-55
2024/01/29 08:05:09;;;;;;;5.82;5.25;;;5.10;73.60;;;;;;5072614;28;20082;-56
2024/01/29 08:07:39;;;;;;;7.63;5.20;;;5.20;73.70;;;;;;5060512;28;20036;-55
2024/01/29 08:10:06;;;;;;;5.63;5.03;;;5.20;73.70;;;;;;5072352;28;20044;-55
2024/01/29 08:12:33;;;;;;;7.75;5.78;;;5.20;73.70;;;;;;5076090;28;20041;-55
2024/01/29 08:15:02;;;;;;;5.85;4.53;;;5.30;73.70;;;;;;5075752;28;20048;-56
2024/01/29 08:17:29;;;;;;;5.55;4.82;;;5.30;73.80;;;;;;5070350;28;20053;-56
2024/01/29 08:19:57;;;;;;;7.43;4.90;;;5.40;73.80;;;;;;5075155;28;20115;-56
2024/01/29 08:22:26;;;;;;;6.13;4.90;;;5.50;73.80;;;;;;5069237;28;20083;-55
2024/01/29 08:24:59;;;;;;;6.82;4.35;;;5.50;73.80;;;;;;5075364;28;20071;-56
2024/01/29 08:27:30;;;;;;;8.50;5.30;;;5.50;73.60;;;;;;5065678;28;20455;-56
2024/01/29 08:29:57;;;;;;;5.38;4.70;;;5.60;73.60;;;;;;5075950;28;20119;-55
2024/01/29 08:32:23;;;;;;;8.02;4.60;;;5.60;73.60;;;;;;5072231;28;20079;-55
2024/01/29 08:34:50;;;;;;;5.15;4.53;;;5.70;73.70;;;;;;5075269;28;20052;-55
2024/01/29 08:37:17;;;;;;;6.65;4.90;;;5.70;73.70;;;;;;5055627;28;20103;-55
2024/01/29 08:39:46;;;;;;;5.13;4.20;;;5.80;73.70;;;;;;5071552;28;20094;-55
2024/01/29 08:42:15;;;;;;;8.25;5.25;;;5.80;73.60;;;;;;5072325;28;20048;-56
2024/01/29 08:44:45;;;;;;;5.85;4.68;;;5.80;73.70;;;;;;5072503;28;20091;-55
2024/01/29 08:47:14;;;;;;;5.88;4.70;;;5.90;73.70;;;;;;5072367;28;20072;-55
2024/01/29 08:49:41;;;;;;;5.70;4.78;;;6.00;73.80;;;;;;5068938;28;20045;-56
2024/01/29 08:52:10;;;;;;;8.30;4.72;;;6.00;73.80;;;;;;5071561;28;20059;-56
2024/01/29 08:54:39;;;;;;;6.22;5.20;;;6.10;73.80;;;;;;5072226;28;20697;-56
2024/01/29 08:57:08;;;;;;;5.25;4.75;;;6.10;73.80;;;;;;5069402;28;20033;-56
2024/01/29 08:59:38;;;;;;;7.65;5.03;;;6.20;73.90;;;;;;5072310;28;20036;-56
2024/01/29 09:02:05;;;;;;;7.60;5.40;;;6.30;73.90;;;;;;5067945;28;20064;-56
2024/01/29 09:04:32;;;;;;;6.30;5.55;;;6.30;73.90;;;;;;5072063;28;20832;-56
2024/01/29 09:07:01;;;;;;;6.75;4.95;;;6.40;74.00;;;;;;5071875;28;20044;-56
2024/01/29 09:09:28;;;;;;;7.30;5.40;;;6.40;74.00;;;;;;5072249;28;20056;-55
2024/01/29 09:11:56;;;;;;;8.93;5.47;;;6.50;74.00;;;;;;5068526;28;20684;-55
2024/01/29 09:14:24;;;;;;;6.28;5.40;;;6.60;74.00;;;;;;5069509;28;20072;-56
2024/01/29 09:16:51;;;;;;;7.25;5.15;;;6.60;73.90;;;;;;5070038;28;20028;-56
2024/01/29 09:19:21;;;;;;;6.07;5.28;;;6.70;73.90;;;;;;5066202;28;20040;-54
2024/01/29 09:21:48;;;;;;;7.03;5.28;;;6.80;73.80;;;;;;5070397;28;20044;-55
2024/01/29 09:24:20;;;;;;;6.13;5.53;;;6.80;73.80;;;;;;5071892;28;20449;-55
2024/01/29 09:26:51;;;;;;;7.40;5.50;;;6.90;73.90;;;;;;5065834;28;20101;-56
2024/01/29 09:29:27;;;;;;;8.32;5.43;;;6.90;73.80;;;;;;5071494;28;20048;-55
2024/01/29 09:32:00;;;;;;;7.10;5.15;;;7.00;74.00;;;;;;5067487;28;20047;-56
2024/01/29 09:34:32;;;;;;;5.93;5.32;;;7.10;74.00;;;;;;5064282;28;20084;-56
2024/01/29 09:37:02;;;;;;;6.72;5.72;;;7.10;73.90;;;;;;5053956;28;20499;-56
2024/01/29 09:39:31;;;;;;;7.50;5.80;;;7.20;74.00;;;;;;5064186;28;20445;-54
2024/01/29 09:42:05;;;;;;;7.22;6.10;;;7.30;74.10;;;;;;5068447;28;20105;-56
2024/01/29 09:44:40;;;;;;;6.15;5.53;;;7.40;74.10;;;;;;5066701;28;20051;-55
2024/01/29 09:47:12;;;;;;;7.32;6.20;;;7.50;74.20;;;;;;5071192;28;20036;-55
2024/01/29 09:49:43;;;;;;;7.10;6.40;;;7.60;74.20;;;;;;5064409;28;20029;-56
2024/01/29 09:52:12;;;;;;;11.65;6.50;;;7.70;74.10;;;;;;5070763;28;20037;-56
2024/01/29 09:54:40;;;;;;;10.70;5.70;;;7.70;74.10;;;;;;5070940;28;20048;-56
2024/01/29 09:57:12;;;;;;;7.25;6.30;;;7.80;74.00;;;;;;5065726;28;20071;-55
2024/01/29 09:59:53;;;;;;;9.60;7.07;;;7.90;74.00;;;;;;5068358;28;20047;-56
2024/01/29 10:02:23;;;;;;;8.40;7.00;;;8.00;74.00;;;;;;5066224;28;20558;-56
2024/01/29 10:04:51;;;;;;;9.50;7.05;;;8.10;73.90;;;;;;5070614;28;20041;-56
2024/01/29 10:07:19;;;;;;;10.82;7.57;;;8.20;73.90;;;;;;5051414;28;20076;-56
2024/01/29 10:09:53;;;;;;;7.35;6.40;;;8.30;73.90;;;;;;5062204;28;20135;-55
2024/01/29 10:12:26;;;;;;;8.82;6.20;;;8.40;73.80;;;;;;5071094;28;20449;-56
2024/01/29 10:14:59;;;;;;;7.88;6.78;;;8.50;73.80;;;;;;5054305;28;20410;-56
2024/01/29 10:17:25;;;;;;;9.55;7.07;;;8.60;73.70;;;;;;5059346;28;20507;-55
2024/01/29 10:20:00;;;;;;;7.53;6.45;;;8.60;74.40;;;;;;5069212;28;20062;-54
2024/01/29 10:22:27;;;;;;;7.40;6.20;;;8.70;73.90;;;;;;5070889;28;20516;-56
2024/01/29 10:25:02;;;;;;;8.15;6.30;;;8.80;73.70;;;;;;5062939;28;20064;-55
2024/01/29 10:27:31;;;;;;;7.75;6.45;;;8.90;73.60;;;;;;5066122;28;20086;-56
2024/01/29 10:30:15;;;;;;;8.93;6.85;;;9.00;73.50;;;;;;5065972;28;20072;-54
2024/01/29 10:32:44;;;;;;;8.52;6.80;;;9.00;73.40;;;;;;5067355;28;20043;-56
2024/01/29 10:35:13;;;;;;;8.20;6.55;;;9.10;73.40;;;;;;5067107;28;20033;-57
2024/01/29 10:37:45;;;;;;;7.75;7.00;;;9.20;73.40;;;;;;5070357;28;20509;-55
2024/01/29 10:40:15;;;;;;;7.38;6.32;;;9.30;73.40;;;;;;5069982;28;20072;-57
2024/01/29 10:42:49;;;;;;;6.95;5.90;;;9.30;73.20;;;;;;5070552;28;20032;-56
2024/01/29 10:45:19;;;;;;;7.32;6.63;;;9.40;73.10;;;;;;5063988;28;20114;-56
2024/01/29 10:47:53;;;;;;;10.10;7.30;;;9.50;73.20;;;;;;5070335;28;20044;-56
2024/01/29 10:50:25;;;;;;;8.63;6.85;;;9.50;73.10;;;;;;5069787;28;20037;-56
2024/01/29 10:52:57;;;;;;;8.00;6.90;;;9.60;73.00;;;;;;5065377;28;20047;-55
2024/01/29 10:55:30;;;;;;;8.77;7.22;;;9.70;72.90;;;;;;5069795;28;20028;-55
2024/01/29 10:58:01;;;;;;;8.55;6.88;;;9.70;72.90;;;;;;5070230;28;20490;-54
2024/01/29 11:00:28;;;;;;;10.48;7.93;;;9.80;72.80;;;;;;5067989;28;20509;-55
2024/01/29 11:02:57;;;;;;;9.68;7.68;;;9.80;72.80;;;;;;5067164;28;20067;-56
2024/01/29 11:05:27;;;;;;;11.65;7.30;;;9.90;72.80;;;;;;5069246;28;20111;-56
2024/01/29 11:08:01;;;;;;;9.80;7.60;;;10.00;72.70;;;;;;5069948;28;20047;-55
2024/01/29 11:10:39;;;;;;;8.02;6.53;;;10.00;72.50;;;;;;5061896;28;20064;-55
2024/01/29 11:13:11;;;;;;;8.57;6.53;;;10.10;72.50;;;;;;5066184;28;20511;-56
2024/01/29 11:15:41;;;;;;;11.10;7.07;;;10.10;72.30;;;;;;5069237;28;20696;-56
2024/01/29 11:18:10;;;;;;;9.00;7.57;;;10.20;72.40;;;;;;5052341;28;20075;-56
2024/01/29 11:20:43;;;;;;;9.27;6.90;;;10.30;72.40;;;;;;5049909;28;20055;-55
2024/01/29 11:23:13;;;;;;;7.68;6.82;;;10.30;72.30;;;;;;5054105;28;20446;-55
2024/01/29 11:25:53;;;;;;;9.02;7.53;;;10.40;72.30;;;;;;5063211;28;20048;-56
2024/01/29 11:28:28;;;;;;;7.97;7.07;;;10.50;72.30;;;;;;5068178;28;20053;-56
2024/01/29 11:30:57;;;;;;;9.02;7.63;;;10.50;72.10;;;;;;5064822;28;20526;-56
2024/01/29 11:33:24;;;;;;;9.57;6.85;;;10.60;72.20;;;;;;5069029;28;20049;-56
2024/01/29 11:35:56;;;;;;;7.45;6.22;;;10.70;72.30;;;;;;5067681;28;20055;-55
2024/01/29 11:38:36;;;;;;;;;;;;;;;;;;;;;
2024/01/29 11:41:08;;;;;;;8.68;6.55;;;10.80;72.20;;;;;;5067949;28;20128;-55
2024/01/29 11:43:35;;;;;;;7.88;6.72;;;10.90;72.40;;;;;;5070121;28;20713;-55
2024/01/29 11:46:05;;;;;;;9.20;6.93;;;11.00;72.30;;;;;;5054272;28;20106;-54
2024/01/29 11:48:35;;;;;;;8.70;6.43;;;11.10;72.40;;;;;;5060288;28;20124;-55
2024/01/29 11:51:02;;;;;;;10.02;6.68;;;11.20;72.40;;;;;;5043713;28;20044;-56
2024/01/29 11:53:31;;;;;;;7.32;5.82;;;11.30;72.40;;;;;;5069186;28;20048;-55
2024/01/29 11:56:05;;;;;;;6.72;5.45;;;11.40;72.30;;;;;;5064664;28;20588;-55
2024/01/29 11:58:35;;;;;;;8.95;5.95;;;11.60;72.10;;;;;;5063368;28;20075;-55
2024/01/29 12:01:03;;;;;;;7.18;5.90;;;11.70;72.20;;;;;;5067633;28;20837;-55
2024/01/29 12:03:34;;;;;;;7.50;5.50;;;11.80;71.90;;;;;;5067957;28;20067;-55
2024/01/29 12:06:12;;;;;;;7.45;5.53;;;11.90;71.70;;;;;;5060284;28;20056;-56
2024/01/29 12:08:47;;;;;;;8.32;5.80;;;12.00;71.50;;;;;;5053439;28;20072;-56
2024/01/29 12:11:15;;;;;;;6.63;5.70;;;12.20;71.30;;;;;;5081373;22;20128;-51
2024/01/29 12:13:46;;;;;;;7.75;5.93;;;12.30;71.20;;;;;;5068566;28;20044;-52
2024/01/29 12:16:16;;;;;;;7.55;5.43;;;12.40;71.10;;;;;;5082524;28;20051;-55
2024/01/29 12:18:44;;;;;;;8.10;6.22;;;12.50;70.90;;;;;;5089781;28;20074;-51
2024/01/29 12:21:11;;;;;;;7.82;5.95;;;12.60;70.80;;;;;;5073453;28;20044;-55
2024/01/29 12:23:51;;;;;;;7.78;5.35;;;12.60;70.50;;;;;;5066704;28;20067;-54
2024/01/29 12:26:29;;;;;;;9.93;5.53;;;12.80;70.60;;;;;;5065848;28;20087;-53
2024/01/29 12:28:59;;;;;;;8.40;6.38;;;12.80;70.30;;;;;;5068563;28;20098;-55
2024/01/29 12:31:31;;;;;;;7.18;5.85;;;12.90;70.20;;;;;;5070215;28;20490;-52
2024/01/29 12:33:58;;;;;;;8.30;5.70;;;13.00;70.10;;;;;;5067025;28;20041;-55
2024/01/29 12:36:27;;;;;;;5.88;5.15;;;13.10;70.10;;;;;;5070579;28;20545;-52
2024/01/29 12:38:58;;;;;;;5.95;5.35;;;13.10;70.00;;;;;;5072909;28;20051;-51
2024/01/29 12:41:37;;;;;;;9.85;5.53;;;13.30;70.00;;;;;;5067556;28;20048;-55
2024/01/29 12:44:10;;;;;;;7.28;4.88;;;13.30;69.70;;;;;;5066544;28;20074;-56
2024/01/29 12:46:40;;;;;;;7.70;6.03;;;13.40;69.70;;;;;;5066915;28;20128;-56
2024/01/29 12:49:07;;;;;;;8.30;5.25;;;13.50;69.70;;;;;;5069250;28;20736;-55
2024/01/29 12:51:34;;;;;;;6.57;5.85;;;13.60;69.70;;;;;;5067553;28;20055;-55
2024/01/29 12:54:01;;;;;;;6.78;5.57;;;13.70;69.60;;;;;;5066346;28;20162;-52
2024/01/29 12:56:31;;;;;;;5.90;5.22;;;13.70;69.40;;;;;;5061140;28;20431;-54
2024/01/29 12:59:01;;;;;;;6.97;4.97;;;13.80;69.30;;;;;;5063256;28;20115;-54
2024/01/29 13:01:27;;;;;;;6.32;5.20;;;13.90;69.20;;;;;;5064511;28;20044;-54
2024/01/29 13:03:55;;;;;;;7.28;5.72;;;14.00;69.00;;;;;;5067047;28;20120;-53
2024/01/29 13:06:25;;;;;;;6.07;5.47;;;14.10;68.80;;;;;;5071343;28;20067;-55
2024/01/29 13:08:52;;;;;;;6.72;5.63;;;14.10;68.60;;;;;;5071116;28;20048;-53
2024/01/29 13:11:24;;;;;;;7.57;5.80;;;14.20;68.60;;;;;;5070713;28;20067;-55